Time;durP1;ratioP1;P1;durP2;ratioP2;P2;SDS_P1;SDS_P2;PMS_P1;PMS_P2;Temp;Humidity;BMP_temperature;BMP_pressure;BME280_temperature;BME280_humidity;BME280_pressure;Samples;Min_cycle;Max_cycle;Signal;HPM_P1;HPM_P2
2023/03/29 00:00:14;;;;;;;34.00;13.43;;;;;;;;;;9788447;30;20029;-86
2023/03/29 00:05:16;;;;;;;29.73;13.30;;;;;;;;;;9789683;30;20047;-86
2023/03/29 00:10:19;;;;;;;37.70;15.63;;;;;;;;;;9790136;30;20039;-86
2023/03/29 00:15:20;;;;;;;64.17;25.03;;;;;;;;;;9789306;30;20126;-86
2023/03/29 00:20:22;;;;;;;66.23;23.17;;;;;;;;;;9786874;30;20054;-86
2023/03/29 00:25:23;;;;;;;66.63;22.80;;;;;;;;;;9780200;30;20329;-86
2023/03/29 00:30:25;;;;;;;88.77;30.30;;;;;;;;;;9789407;30;20033;-86
2023/03/29 00:35:26;;;;;;;84.17;29.67;;;;;;;;;;9786746;30;20055;-86
2023/03/29 00:40:27;;;;;;;84.33;28.20;;;;;;;;;;9786735;30;20390;-86
2023/03/29 00:45:29;;;;;;;67.33;23.87;;;;;;;;;;9786418;30;20043;-86
2023/03/29 00:50:32;;;;;;;59.47;24.20;;;;;;;;;;9786297;30;20039;-86
2023/03/29 00:55:38;;;;;;;54.27;21.57;;;;;;;;;;9787606;30;20051;-85
2023/03/29 01:00:46;;;;;;;51.47;21.85;;;;;;;;;;9787148;30;20047;-86
2023/03/29 01:05:47;;;;;;;46.00;18.20;;;;;;;;;;9785939;30;20072;-85
2023/03/29 01:10:55;;;;;;;59.53;21.40;;;;;;;;;;9785924;30;20048;-85
2023/03/29 01:15:57;;;;;;;51.27;21.73;;;;;;;;;;9785376;30;20474;-86
2023/03/29 01:21:18;;;;;;;53.13;22.23;;;;;;;;;;9787455;30;20056;-85
2023/03/29 01:26:25;;;;;;;53.03;22.83;;;;;;;;;;9786349;30;20124;-85
2023/03/29 01:31:29;;;;;;;54.80;24.53;;;;;;;;;;9786074;30;20094;-86
2023/03/29 01:36:37;;;;;;;54.20;22.97;;;;;;;;;;9786896;30;20127;-83
2023/03/29 01:41:41;;;;;;;54.23;23.33;;;;;;;;;;9786724;30;20145;-83
2023/03/29 01:46:46;;;;;;;45.60;20.07;;;;;;;;;;9784363;30;20092;-83
2023/03/29 01:51:53;;;;;;;52.38;19.05;;;;;;;;;;9786239;30;20024;-83
2023/03/29 01:56:55;;;;;;;46.87;19.30;;;;;;;;;;9784953;30;20098;-83
2023/03/29 02:01:58;;;;;;;49.67;21.17;;;;;;;;;;9786142;30;20044;-83
2023/03/29 02:07:00;;;;;;;40.93;19.43;;;;;;;;;;9784940;30;20124;-83
2023/03/29 02:12:03;;;;;;;54.63;22.67;;;;;;;;;;9785636;30;20041;-83
2023/03/29 02:17:17;;;;;;;57.30;25.50;;;;;;;;;;9785465;30;20053;-83
2023/03/29 02:22:22;;;;;;;66.30;30.70;;;;;;;;;;9785876;30;20053;-83
2023/03/29 02:27:23;;;;;;;56.45;24.98;;;;;;;;;;9785793;30;20606;-82
2023/03/29 02:32:28;;;;;;;58.50;25.57;;;;;;;;;;9785229;30;20032;-83
2023/03/29 02:37:30;;;;;;;48.80;23.33;;;;;;;;;;9785966;30;20674;-82
2023/03/29 02:42:31;;;;;;;51.90;23.93;;;;;;;;;;9790867;30;20056;-82
2023/03/29 02:47:39;;;;;;;61.73;27.83;;;;;;;;;;9792611;30;20040;-82
2023/03/29 02:52:42;;;;;;;60.73;27.67;;;;;;;;;;9791039;30;20045;-84
2023/03/29 02:57:43;;;;;;;61.37;27.43;;;;;;;;;;9790104;30;20037;-83
2023/03/29 03:02:45;;;;;;;57.20;29.30;;;;;;;;;;9789583;30;20029;-84
2023/03/29 03:07:46;;;;;;;57.03;27.37;;;;;;;;;;9790163;30;20514;-85
2023/03/29 03:12:47;;;;;;;56.77;28.10;;;;;;;;;;9790229;30;20036;-83
2023/03/29 03:17:48;;;;;;;70.63;33.40;;;;;;;;;;9789734;30;20512;-87
2023/03/29 03:22:51;;;;;;;69.07;34.00;;;;;;;;;;9790479;30;20182;-83
2023/03/29 03:27:53;;;;;;;88.07;41.30;;;;;;;;;;9790835;30;20656;-87
2023/03/29 03:32:54;;;;;;;84.90;40.43;;;;;;;;;;9788796;30;20640;-87
2023/03/29 03:37:55;;;;;;;84.57;43.30;;;;;;;;;;9788384;30;20033;-84
2023/03/29 03:42:56;;;;;;;73.00;39.57;;;;;;;;;;9788923;30;20470;-84
2023/03/29 03:47:57;;;;;;;81.27;41.20;;;;;;;;;;9787896;30;20042;-85
2023/03/29 03:52:58;;;;;;;89.27;44.80;;;;;;;;;;9789748;30;20048;-86
2023/03/29 03:57:59;;;;;;;99.40;50.10;;;;;;;;;;9789560;30;20506;-85
2023/03/29 04:03:01;;;;;;;104.83;50.10;;;;;;;;;;9788047;30;20040;-85
2023/03/29 04:08:02;;;;;;;99.47;52.00;;;;;;;;;;9788509;30;20624;-85
2023/03/29 04:13:03;;;;;;;114.03;51.80;;;;;;;;;;9788867;30;20043;-85
2023/03/29 04:18:06;;;;;;;108.37;54.67;;;;;;;;;;9787144;30;20040;-85
2023/03/29 04:23:07;;;;;;;123.77;62.67;;;;;;;;;;9789519;30;20064;-85
2023/03/29 04:28:09;;;;;;;127.17;61.37;;;;;;;;;;9788934;30;20032;-85
2023/03/29 04:33:10;;;;;;;114.33;58.10;;;;;;;;;;9786381;30;20040;-85
2023/03/29 04:38:11;;;;;;;124.60;63.37;;;;;;;;;;9786850;30;20067;-85
2023/03/29 04:43:13;;;;;;;111.50;58.10;;;;;;;;;;9788668;30;20031;-85
2023/03/29 04:48:14;;;;;;;122.93;59.83;;;;;;;;;;9787925;30;20757;-85
2023/03/29 04:53:15;;;;;;;115.13;56.20;;;;;;;;;;9786619;30;20045;-85
2023/03/29 04:58:17;;;;;;;122.97;60.20;;;;;;;;;;9785910;30;20033;-85
2023/03/29 05:03:18;;;;;;;137.97;67.93;;;;;;;;;;9779500;30;20032;-86
2023/03/29 05:08:22;;;;;;;111.43;54.27;;;;;;;;;;9786330;30;20470;-87
2023/03/29 05:13:23;;;;;;;94.50;46.73;;;;;;;;;;9786161;30;20048;-83
2023/03/29 05:18:25;;;;;;;89.70;42.53;;;;;;;;;;9775907;30;20049;-84
2023/03/29 05:23:26;;;;;;;88.60;42.73;;;;;;;;;;9786139;30;20520;-85
2023/03/29 05:28:27;;;;;;;95.77;45.10;;;;;;;;;;9786593;30;20414;-85
2023/03/29 05:33:28;;;;;;;104.93;56.93;;;;;;;;;;9786315;30;20067;-85
2023/03/29 05:38:31;;;;;;;111.43;59.00;;;;;;;;;;9786323;30;20572;-84
2023/03/29 05:43:33;;;;;;;98.20;52.60;;;;;;;;;;9786008;30;20079;-83
2023/03/29 05:48:34;;;;;;;100.03;52.00;;;;;;;;;;9784863;30;20074;-85
2023/03/29 05:53:35;;;;;;;117.00;51.87;;;;;;;;;;9777114;30;20044;-85
2023/03/29 05:58:38;;;;;;;102.90;47.23;;;;;;;;;;9784416;30;20047;-85
2023/03/29 06:03:39;;;;;;;94.93;46.00;;;;;;;;;;9784634;30;20043;-86
2023/03/29 06:08:40;;;;;;;99.70;46.47;;;;;;;;;;9784186;30;20040;-87
2023/03/29 06:13:41;;;;;;;104.90;47.13;;;;;;;;;;9796063;30;20493;-88
2023/03/29 06:18:43;;;;;;;118.53;54.57;;;;;;;;;;9781182;30;20072;-90
2023/03/29 06:23:45;;;;;;;94.27;45.13;;;;;;;;;;9804121;30;20054;-88
2023/03/29 06:28:46;;;;;;;98.63;46.53;;;;;;;;;;9793288;30;20036;-87
2023/03/29 06:33:48;;;;;;;86.47;41.53;;;;;;;;;;9790920;30;20037;-85
2023/03/29 06:38:49;;;;;;;82.23;41.60;;;;;;;;;;9794419;30;20647;-88
2023/03/29 06:43:52;;;;;;;83.67;38.60;;;;;;;;;;9791535;30;20029;-87
2023/03/29 06:48:54;;;;;;;70.83;34.40;;;;;;;;;;9790653;30;20039;-86
2023/03/29 06:53:55;;;;;;;71.17;33.23;;;;;;;;;;9793257;30;20029;-87
2023/03/29 06:58:56;;;;;;;77.10;37.30;;;;;;;;;;9790883;30;20536;-87
2023/03/29 07:03:59;;;;;;;72.87;34.37;;;;;;;;;;9791124;30;20040;-89
2023/03/29 07:09:00;;;;;;;79.93;43.50;;;;;;;;;;9790354;30;20249;-88
2023/03/29 07:14:04;;;;;;;67.87;33.20;;;;;;;;;;9799564;30;20067;-88
2023/03/29 07:19:07;;;;;;;73.80;34.67;;;;;;;;;;9793127;30;20051;-87
2023/03/29 07:24:09;;;;;;;65.43;32.17;;;;;;;;;;9796961;30;20469;-88
2023/03/29 07:29:10;;;;;;;77.40;37.07;;;;;;;;;;9800328;30;20033;-87
2023/03/29 07:34:11;;;;;;;67.33;35.03;;;;;;;;;;9789541;30;20041;-88
2023/03/29 07:39:14;;;;;;;68.17;32.93;;;;;;;;;;9791035;30;20039;-87
2023/03/29 07:44:17;;;;;;;85.87;42.30;;;;;;;;;;9791189;30;20040;-87
2023/03/29 07:49:20;;;;;;;53.60;26.13;;;;;;;;;;9801147;30;20768;-88
2023/03/29 07:54:21;;;;;;;54.60;22.77;;;;;;;;;;9791030;30;20076;-88
2023/03/29 07:59:21;;;;;;;71.63;27.77;;;;;;;;;;9790635;30;20573;-87
2023/03/29 08:04:22;;;;;;;51.90;22.53;;;;;;;;;;9788721;30;20041;-88
2023/03/29 08:09:24;;;;;;;36.53;17.00;;;;;;;;;;9791753;30;20040;-87
2023/03/29 08:14:27;;;;;;;44.57;18.17;;;;;;;;;;9790657;30;20040;-87
2023/03/29 08:19:28;;;;;;;22.03;10.93;;;;;;;;;;9797321;30;20060;-87
2023/03/29 08:24:30;;;;;;;32.83;14.50;;;;;;;;;;9787266;30;20360;-87
2023/03/29 08:29:32;;;;;;;27.17;14.93;;;;;;;;;;9798036;30;20051;-88
2023/03/29 08:34:34;;;;;;;27.70;11.90;;;;;;;;;;9792678;30;20048;-87
2023/03/29 08:39:36;;;;;;;44.27;19.53;;;;;;;;;;9792934;30;20495;-88
2023/03/29 08:44:40;;;;;;;32.63;15.53;;;;;;;;;;9777254;30;20033;-88
2023/03/29 08:49:44;;;;;;;24.23;11.10;;;;;;;;;;9789510;30;20048;-88
2023/03/29 08:54:46;;;;;;;28.80;13.70;;;;;;;;;;9789521;30;20052;-88
2023/03/29 08:59:50;;;;;;;16.23;6.73;;;;;;;;;;9790497;30;20064;-85
2023/03/29 09:04:52;;;;;;;17.27;9.10;;;;;;;;;;9793585;30;20212;-82
2023/03/29 09:09:53;;;;;;;13.27;6.90;;;;;;;;;;9787299;30;20461;-86
2023/03/29 09:15:15;;;;;;;19.93;7.40;;;;;;;;;;9780985;30;20072;-84
2023/03/29 09:20:27;;;;;;;12.50;6.10;;;;;;;;;;9769307;30;20053;-85
2023/03/29 09:25:47;;;;;;;13.50;6.80;;;;;;;;;;9779848;30;20497;-85
2023/03/29 09:30:57;;;;;;;9.03;4.90;;;;;;;;;;9791184;30;20032;-85
2023/03/29 09:36:03;;;;;;;6.63;4.50;;;;;;;;;;9793332;30;20044;-82
2023/03/29 09:41:09;;;;;;;9.90;5.10;;;;;;;;;;9785750;30;20378;-82
2023/03/29 09:46:14;;;;;;;;;;;;;;;;;;9793970;30;20500;-85
2023/03/29 09:51:17;;;;;;;12.03;6.20;;;;;;;;;;9786627;30;19917;-82
2023/03/29 09:56:18;;;;;;;9.37;4.77;;;;;;;;;;9792792;30;20486;-86
2023/03/29 10:01:19;;;;;;;10.23;4.80;;;;;;;;;;9791354;30;20044;-85
2023/03/29 10:06:22;;;;;;;12.10;5.10;;;;;;;;;;9781518;30;20126;-84
2023/03/29 10:11:28;;;;;;;9.10;4.30;;;;;;;;;;9784422;30;20064;-83
2023/03/29 10:16:34;;;;;;;8.83;4.40;;;;;;;;;;9796365;30;20123;-83
2023/03/29 10:21:36;;;;;;;10.17;4.23;;;;;;;;;;9785387;30;20064;-84
2023/03/29 10:26:38;;;;;;;10.17;5.10;;;;;;;;;;9779718;30;20501;-84
2023/03/29 10:31:41;;;;;;;10.47;4.53;;;;;;;;;;9790712;30;20059;-85
2023/03/29 10:36:44;;;;;;;9.63;4.20;;;;;;;;;;9786880;30;20044;-84
2023/03/29 10:41:49;;;;;;;10.57;3.97;;;;;;;;;;9784317;30;20068;-85
2023/03/29 10:46:50;;;;;;;7.23;4.23;;;;;;;;;;9777972;30;20188;-86
2023/03/29 10:51:52;;;;;;;7.50;4.13;;;;;;;;;;9784124;30;20033;-83
2023/03/29 10:56:55;;;;;;;9.50;3.90;;;;;;;;;;9784138;30;20044;-83
2023/03/29 11:01:56;;;;;;;16.57;8.60;;;;;;;;;;9787309;30;20024;-83
2023/03/29 11:07:16;;;;;;;8.43;4.10;;;;;;;;;;9801418;30;20539;-85
2023/03/29 11:12:27;;;;;;;7.53;4.60;;;;;;;;;;9790038;30;20199;-85
2023/03/29 11:17:40;;;;;;;21.98;12.10;;;;;;;;;;9790625;30;20201;-83
2023/03/29 11:22:48;;;;;;;10.18;5.47;;;;;;;;;;9789870;30;20072;-84
2023/03/29 11:28:00;;;;;;;22.55;10.93;;;;;;;;;;9798558;30;20075;-83
2023/03/29 11:33:04;;;;;;;22.70;10.13;;;;;;;;;;9791120;30;20047;-83
2023/03/29 11:38:13;;;;;;;19.35;8.98;;;;;;;;;;9787118;30;20432;-84
2023/03/29 11:43:18;;;;;;;9.55;4.03;;;;;;;;;;9790753;30;20032;-84
2023/03/29 11:48:22;;;;;;;9.38;3.50;;;;;;;;;;9800650;30;20371;-84
2023/03/29 11:53:46;;;;;;;14.90;4.57;;;;;;;;;;9789117;30;20059;-85
2023/03/29 11:58:50;;;;;;;7.88;3.38;;;;;;;;;;9784480;30;20025;-84
2023/03/29 12:03:56;;;;;;;11.50;4.93;;;;;;;;;;9788075;30;20139;-84
2023/03/29 12:09:02;;;;;;;21.73;10.32;;;;;;;;;;9790285;30;20508;-85
2023/03/29 12:14:08;;;;;;;;;;;;;;;;;;9790121;30;20071;-84
2023/03/29 12:19:31;;;;;;;16.73;6.88;;;;;;;;;;9786386;30;19918;-85
2023/03/29 12:24:34;;;;;;;13.13;5.03;;;;;;;;;;9797895;30;20107;-84
2023/03/29 12:29:48;;;;;;;23.40;9.95;;;;;;;;;;9787248;30;20029;-85
2023/03/29 12:34:52;;;;;;;24.67;10.48;;;;;;;;;;9787187;30;20052;-88
2023/03/29 12:39:53;;;;;;;14.60;6.28;;;;;;;;;;9792654;30;20040;-85
2023/03/29 12:44:58;;;;;;;13.43;6.68;;;;;;;;;;9791149;30;20055;-84
2023/03/29 12:50:00;;;;;;;12.60;5.67;;;;;;;;;;9787982;30;20029;-85
2023/03/29 12:55:03;;;;;;;9.77;4.88;;;;;;;;;;9785715;30;20075;-83
2023/03/29 13:00:27;;;;;;;8.38;4.75;;;;;;;;;;9786192;30;20044;-83
2023/03/29 13:05:37;;;;;;;10.02;6.20;;;;;;;;;;9786820;30;20060;-83
2023/03/29 13:10:41;;;;;;;9.65;5.18;;;;;;;;;;9790596;30;20122;-88
2023/03/29 13:15:44;;;;;;;15.98;7.75;;;;;;;;;;9786413;30;20265;-84
2023/03/29 13:21:08;;;;;;;10.55;4.88;;;;;;;;;;9787414;30;20615;-82
2023/03/29 13:26:21;;;;;;;6.80;4.00;;;;;;;;;;9786434;30;20374;-83
2023/03/29 13:31:32;;;;;;;8.13;4.18;;;;;;;;;;9785279;30;20043;-83
2023/03/29 13:36:33;;;;;;;8.05;4.45;;;;;;;;;;9786494;30;20072;-86
2023/03/29 13:41:54;;;;;;;13.55;8.90;;;;;;;;;;9784885;30;20565;-83
2023/03/29 13:47:05;;;;;;;14.55;7.53;;;;;;;;;;9791361;30;20386;-84
2023/03/29 13:52:21;;;;;;;28.60;12.00;;;;;;;;;;9784895;30;20043;-82
2023/03/29 13:57:31;;;;;;;35.25;17.58;;;;;;;;;;9787650;30;20514;-84
2023/03/29 14:02:37;;;;;;;48.80;17.75;;;;;;;;;;9797837;30;20024;-81
2023/03/29 14:07:39;;;;;;;15.50;6.60;;;;;;;;;;9785873;30;20059;-83
2023/03/29 14:12:40;;;;;;;32.55;12.40;;;;;;;;;;9785488;30;20036;-82
2023/03/29 14:17:41;;;;;;;23.80;9.32;;;;;;;;;;9802325;30;20127;-84
2023/03/29 14:22:43;;;;;;;35.45;13.85;;;;;;;;;;9788597;30;20135;-84
2023/03/29 14:27:44;;;;;;;33.67;12.32;;;;;;;;;;9788562;30;20120;-83
2023/03/29 14:32:45;;;;;;;26.30;12.10;;;;;;;;;;9784680;30;20086;-83
2023/03/29 14:37:47;;;;;;;35.78;13.38;;;;;;;;;;9796022;30;20044;-84
2023/03/29 14:42:50;;;;;;;21.05;7.60;;;;;;;;;;9790312;30;20466;-86
2023/03/29 14:47:51;;;;;;;22.85;7.65;;;;;;;;;;9790106;30;20521;-86
2023/03/29 14:52:52;;;;;;;32.05;11.90;;;;;;;;;;9790685;30;20043;-84
2023/03/29 14:57:54;;;;;;;27.27;11.77;;;;;;;;;;9790943;30;20052;-83
2023/03/29 15:02:56;;;;;;;15.05;6.82;;;;;;;;;;9792428;30;20474;-84
2023/03/29 15:07:58;;;;;;;11.27;5.72;;;;;;;;;;9795094;30;20128;-84
2023/03/29 15:13:01;;;;;;;18.90;8.20;;;;;;;;;;9789532;30;20041;-84
2023/03/29 16:27:49;;;;;;;28.17;12.53;;;;;;;;;;10647545;27;20388;-83
2023/03/29 16:32:50;;;;;;;107.30;38.07;;;;;;;;;;10611634;27;20135;-82
2023/03/29 16:37:51;;;;;;;54.73;20.97;;;;;;;;;;10642792;27;20026;-83
2023/03/29 16:42:53;;;;;;;167.07;55.20;;;;;;;;;;10641178;27;20031;-82
2023/03/29 16:47:54;;;;;;;120.57;40.33;;;;;;;;;;10638450;27;20496;-80
2023/03/29 16:52:56;;;;;;;145.23;47.80;;;;;;;;;;10632508;27;20034;-80
2023/03/29 16:57:57;;;;;;;302.47;101.70;;;;;;;;;;10629225;27;20456;-81
2023/03/29 17:03:01;;;;;;;309.90;101.73;;;;;;;;;;10629819;27;20033;-82
2023/03/29 17:08:02;;;;;;;171.23;59.40;;;;;;;;;;10644003;27;20030;-84
2023/03/29 17:13:03;;;;;;;221.40;72.70;;;;;;;;;;10594552;27;20593;-81
2023/03/29 17:18:04;;;;;;;300.43;99.37;;;;;;;;;;10586997;27;20050;-79
2023/03/29 17:23:07;;;;;;;141.60;45.27;;;;;;;;;;10621571;27;20515;-81
2023/03/29 17:28:09;;;;;;;90.10;29.13;;;;;;;;;;10586038;27;20072;-82
2023/03/29 17:33:10;;;;;;;82.70;25.70;;;;;;;;;;10582160;27;20432;-83
2023/03/29 17:38:11;;;;;;;69.60;24.53;;;;;;;;;;10534728;22;20050;-83
2023/03/29 17:43:12;;;;;;;32.80;11.47;;;;;;;;;;10325577;28;20116;-83
2023/03/29 17:48:13;;;;;;;32.60;12.57;;;;;;;;;;10326097;28;20379;-83
2023/03/29 17:53:14;;;;;;;39.23;14.23;;;;;;;;;;10292371;28;20046;-83
2023/03/29 17:58:15;;;;;;;23.00;8.53;;;;;;;;;;10315625;28;20094;-82
2023/03/29 18:03:16;;;;;;;25.00;10.10;;;;;;;;;;10306828;28;20060;-81
2023/03/29 18:08:17;;;;;;;27.43;10.53;;;;;;;;;;10324582;28;20026;-83
2023/03/29 18:13:24;;;;;;;34.57;12.93;;;;;;;;;;10324212;28;20034;-84
2023/03/29 18:18:26;;;;;;;27.77;10.87;;;;;;;;;;10323001;28;20033;-83
2023/03/29 18:23:27;;;;;;;32.40;14.40;;;;;;;;;;10346674;23;20057;-83
2023/03/29 18:28:28;;;;;;;54.63;19.53;;;;;;;;;;10404758;28;20029;-84
2023/03/29 18:33:33;;;;;;;90.30;32.20;;;;;;;;;;10405318;28;20033;-83
2023/03/29 18:38:39;;;;;;;193.07;62.28;;;;;;;;;;10385203;28;20033;-82
2023/03/29 18:43:43;;;;;;;161.83;58.20;;;;;;;;;;10405064;28;20037;-82
2023/03/29 18:48:43;;;;;;;173.50;61.67;;;;;;;;;;10407222;28;20035;-81
2023/03/29 18:53:45;;;;;;;203.27;72.90;;;;;;;;;;10402363;28;20036;-81
2023/03/29 18:58:46;;;;;;;172.67;67.13;;;;;;;;;;10389199;28;20029;-84
2023/03/29 19:03:47;;;;;;;100.10;32.37;;;;;;;;;;10418979;28;20486;-82
2023/03/29 19:08:48;;;;;;;72.60;26.63;;;;;;;;;;10421151;28;20039;-82
2023/03/29 19:13:51;;;;;;;61.60;22.23;;;;;;;;;;10427883;28;20044;-82
2023/03/29 19:18:52;;;;;;;37.00;14.07;;;;;;;;;;10417870;28;20522;-83
2023/03/29 19:23:53;;;;;;;40.00;16.37;;;;;;;;;;10429384;28;20044;-83
2023/03/29 19:28:54;;;;;;;43.80;17.80;;;;;;;;;;10453064;28;20031;-81
2023/03/29 19:33:55;;;;;;;45.83;17.80;;;;;;;;;;10453015;28;20028;-82
2023/03/29 19:38:56;;;;;;;39.57;17.90;;;;;;;;;;10460322;28;20037;-82
2023/03/29 19:43:57;;;;;;;51.90;21.73;;;;;;;;;;10446392;28;20025;-83
2023/03/29 19:48:59;;;;;;;62.57;29.60;;;;;;;;;;10458417;28;20075;-81
2023/03/29 19:54:01;;;;;;;59.43;25.40;;;;;;;;;;10434965;28;20042;-82
2023/03/29 19:59:02;;;;;;;67.67;30.00;;;;;;;;;;10466985;28;20036;-83
2023/03/29 20:04:03;;;;;;;80.40;38.77;;;;;;;;;;10422951;28;20035;-81
2023/03/29 20:09:05;;;;;;;83.57;44.23;;;;;;;;;;10463261;28;20808;-82
2023/03/29 20:14:07;;;;;;;82.90;40.70;;;;;;;;;;10435020;28;20029;-82
2023/03/29 20:19:08;;;;;;;77.20;33.97;;;;;;;;;;10447646;28;20017;-81
2023/03/29 20:24:10;;;;;;;99.13;41.50;;;;;;;;;;10469424;28;20150;-81
2023/03/29 20:29:14;;;;;;;68.73;32.10;;;;;;;;;;10455559;28;20036;-83
2023/03/29 20:34:16;;;;;;;57.27;25.50;;;;;;;;;;10447816;28;20028;-81
2023/03/29 20:39:18;;;;;;;63.77;29.70;;;;;;;;;;10449482;28;20048;-83
2023/03/29 20:44:24;;;;;;;54.07;24.23;;;;;;;;;;10461998;28;20044;-82
2023/03/29 20:49:25;;;;;;;94.70;32.53;;;;;;;;;;10432700;28;20491;-82
2023/03/29 20:54:27;;;;;;;65.33;25.00;;;;;;;;;;10468479;28;20024;-82
2023/03/29 20:59:28;;;;;;;46.67;23.33;;;;;;;;;;10459718;28;20029;-82
2023/03/29 21:04:29;;;;;;;47.30;21.27;;;;;;;;;;10465192;28;20033;-83
2023/03/29 21:15:10;;;;;;;44.87;19.83;;;;;;;;;;10442918;28;20048;-82
2023/03/29 21:20:11;;;;;;;33.80;15.17;;;;;;;;;;10457615;28;20067;-82
2023/03/29 21:25:16;;;;;;;34.90;16.93;;;;;;;;;;10466415;28;20048;-82
2023/03/29 21:30:17;;;;;;;33.97;16.70;;;;;;;;;;10452089;28;20044;-82
2023/03/29 21:35:18;;;;;;;39.50;17.67;;;;;;;;;;10453453;28;20353;-84
2023/03/29 21:40:19;;;;;;;43.77;19.67;;;;;;;;;;10468170;28;20106;-82
2023/03/29 21:45:20;;;;;;;44.33;20.43;;;;;;;;;;10464938;28;20045;-81
2023/03/29 21:50:21;;;;;;;49.03;21.30;;;;;;;;;;10462733;28;20380;-82
2023/03/29 21:55:22;;;;;;;43.17;21.07;;;;;;;;;;10462140;28;20067;-83
2023/03/29 22:00:24;;;;;;;74.17;30.23;;;;;;;;;;10464500;28;20033;-81
2023/03/29 22:05:25;;;;;;;43.97;18.70;;;;;;;;;;10458092;28;20064;-83
2023/03/29 22:10:26;;;;;;;51.67;20.63;;;;;;;;;;10460176;28;20419;-80
2023/03/29 22:15:34;;;;;;;44.43;18.93;;;;;;;;;;10454837;28;20033;-80
2023/03/29 22:20:35;;;;;;;49.13;21.33;;;;;;;;;;10476844;28;20029;-84
2023/03/29 22:25:36;;;;;;;37.67;17.10;;;;;;;;;;10451440;28;20051;-79
2023/03/29 22:30:37;;;;;;;48.37;20.20;;;;;;;;;;10481406;28;20108;-81
2023/03/29 22:35:38;;;;;;;37.83;16.40;;;;;;;;;;10460475;28;20033;-80
2023/03/29 22:40:40;;;;;;;36.60;18.13;;;;;;;;;;10478803;28;20044;-81
2023/03/29 22:45:41;;;;;;;41.83;18.00;;;;;;;;;;10463317;28;20541;-80
2023/03/29 22:50:45;;;;;;;56.30;24.97;;;;;;;;;;10449671;28;20047;-81
2023/03/29 22:55:46;;;;;;;30.10;12.90;;;;;;;;;;10471438;28;20072;-81
2023/03/29 23:00:47;;;;;;;24.47;12.77;;;;;;;;;;10478127;28;20047;-79
2023/03/29 23:05:49;;;;;;;23.70;10.90;;;;;;;;;;10451249;28;20051;-82
2023/03/29 23:10:50;;;;;;;26.20;12.30;;;;;;;;;;10460401;28;20094;-79
2023/03/29 23:15:53;;;;;;;20.40;10.53;;;;;;;;;;10467566;28;20076;-80
2023/03/29 23:20:55;;;;;;;21.43;10.73;;;;;;;;;;10438141;28;20036;-80
2023/03/29 23:25:56;;;;;;;22.80;10.50;;;;;;;;;;10443412;28;20049;-79
2023/03/29 23:31:01;;;;;;;22.87;10.47;;;;;;;;;;10436639;28;20063;-82
2023/03/29 23:36:03;;;;;;;20.83;10.93;;;;;;;;;;10440973;28;20048;-82
2023/03/29 23:41:07;;;;;;;20.90;10.10;;;;;;;;;;10441877;28;20087;-82
2023/03/29 23:46:14;;;;;;;18.93;9.60;;;;;;;;;;10479759;28;20032;-82
2023/03/29 23:51:17;;;;;;;23.30;9.67;;;;;;;;;;10462634;28;20025;-83
2023/03/29 23:56:20;;;;;;;20.37;9.50;;;;;;;;;;10467322;28;20119;-81
